createdAt,value
2022-10-03T00:01:50.802Z,9.93
2022-10-03T00:05:57.224Z,13.67
2022-10-03T00:10:03.049Z,14.83
2022-10-03T00:14:09.821Z,17.83
2022-10-03T00:18:19.612Z,11.73
2022-10-03T00:22:27.005Z,13.50
2022-10-03T00:26:34.424Z,17.47
2022-10-03T00:30:45.916Z,13.53
2022-10-03T00:34:57.420Z,12.77
2022-10-03T00:39:22.897Z,14.50
2022-10-03T00:43:47.648Z,8.70
2022-10-03T00:48:01.052Z,13.80
2022-10-03T00:52:14.388Z,12.10
2022-10-03T00:56:31.659Z,16.47
2022-10-03T01:00:34.254Z,11.20
2022-10-03T01:04:40.817Z,12.37
2022-10-03T01:08:52.713Z,9.80
2022-10-03T01:13:04.606Z,11.07
2022-10-03T01:17:12.256Z,12.10
2022-10-03T01:21:19.382Z,15.77
2022-10-03T01:25:28.856Z,13.30
2022-10-03T01:29:42.527Z,15.10
2022-10-03T01:33:46.820Z,11.87
2022-10-03T01:37:51.611Z,16.37
2022-10-03T01:41:57.842Z,12.63
2022-10-03T01:46:05.835Z,17.77
2022-10-03T01:50:13.909Z,17.03
2022-10-03T01:54:19.544Z,12.63
2022-10-03T01:58:23.632Z,20.10
2022-10-03T02:02:28.603Z,13.83
2022-10-03T02:06:35.300Z,16.60
2022-10-03T02:10:40.741Z,18.80
2022-10-03T02:14:47.492Z,15.67
2022-10-03T02:18:53.637Z,17.43
2022-10-03T02:22:55.792Z,15.77
2022-10-03T02:27:07.389Z,16.70
2022-10-03T02:31:22.325Z,20.47
2022-10-03T02:35:44.436Z,17.50
2022-10-03T02:40:00.560Z,13.00
2022-10-03T02:44:16.250Z,13.93
2022-10-03T02:48:32.435Z,11.40
2022-10-03T02:52:55.296Z,16.27
2022-10-03T02:57:24.948Z,15.07
2022-10-03T03:01:44.014Z,14.50
2022-10-03T03:06:05.440Z,11.13
2022-10-03T03:10:22.208Z,17.87
2022-10-03T03:14:41.320Z,17.27
2022-10-03T03:18:48.965Z,15.20
2022-10-03T03:23:03.988Z,15.90
2022-10-03T03:27:13.281Z,17.30
2022-10-03T03:31:16.386Z,15.73
2022-10-03T03:35:24.700Z,12.43
2022-10-03T03:39:44.153Z,13.00
2022-10-03T03:43:53.621Z,16.63
2022-10-03T03:48:00.372Z,11.83
2022-10-03T03:52:09.840Z,14.47
2022-10-03T03:56:29.049Z,13.00
2022-10-03T04:00:38.655Z,12.67
2022-10-03T04:04:45.577Z,11.70
2022-10-03T04:09:01.102Z,18.20
2022-10-03T04:13:09.168Z,12.37
2022-10-03T04:17:18.364Z,18.17
2022-10-03T04:21:32.428Z,16.17
2022-10-03T04:25:42.369Z,16.77
2022-10-03T04:29:46.204Z,15.20
2022-10-03T04:33:52.784Z,11.53
2022-10-03T04:38:00.684Z,16.83
2022-10-03T04:42:10.190Z,17.23
2022-10-03T04:46:16.839Z,16.73
2022-10-03T04:50:31.661Z,13.40
2022-10-03T04:54:39.579Z,16.17
2022-10-03T04:58:48.428Z,15.57
2022-10-03T05:02:52.448Z,19.43
2022-10-03T05:06:59.824Z,16.17
2022-10-03T05:11:04.655Z,19.23
2022-10-03T05:15:14.996Z,10.73
2022-10-03T05:19:31.128Z,14.80
2022-10-03T05:23:41.673Z,15.20
2022-10-03T05:27:47.286Z,13.37
2022-10-03T05:31:55.653Z,14.40
2022-10-03T05:36:07.394Z,11.80
2022-10-03T05:40:14.349Z,10.47
2022-10-03T05:44:17.780Z,14.67
2022-10-03T05:48:24.876Z,12.27
2022-10-03T05:52:37.013Z,13.50
2022-10-03T05:56:45.593Z,16.17
2022-10-03T06:01:04.661Z,12.37
2022-10-03T06:05:15.253Z,15.67
2022-10-03T06:09:31.236Z,16.27
2022-10-03T06:13:48.508Z,13.67
2022-10-03T06:17:57.412Z,14.67
2022-10-03T06:22:16.613Z,19.60
2022-10-03T06:26:32.452Z,15.03
2022-10-03T06:30:40.847Z,12.23
2022-10-03T06:34:51.616Z,13.53
2022-10-03T06:39:07.737Z,17.83
2022-10-03T06:43:27.296Z,15.30
2022-10-03T06:47:39.208Z,21.77
2022-10-03T06:51:49.753Z,16.73
2022-10-03T06:56:09.965Z,14.47
2022-10-03T07:00:13.166Z,12.97
2022-10-03T07:04:32.514Z,11.90
2022-10-03T07:08:42.871Z,13.87
2022-10-03T07:12:59.018Z,25.63
2022-10-03T07:17:08.603Z,17.37
2022-10-03T07:21:28.835Z,14.50
2022-10-03T07:25:47.788Z,17.23
2022-10-03T07:30:07.771Z,14.80
2022-10-03T07:34:27.187Z,13.97
2022-10-03T07:38:46.387Z,14.80
2022-10-03T07:43:00.013Z,18.87
2022-10-03T07:47:31.193Z,19.90
2022-10-03T07:51:35.229Z,18.57
2022-10-03T07:55:44.676Z,14.27
2022-10-03T07:59:57.200Z,18.77
2022-10-03T08:04:22.572Z,11.97
2022-10-03T08:08:51.345Z,18.03
2022-10-03T08:13:05.461Z,18.10
2022-10-03T08:17:15.957Z,19.10
2022-10-03T08:21:18.744Z,14.63
2022-10-03T08:25:25.370Z,19.97
2022-10-03T08:29:31.881Z,13.47
2022-10-03T08:33:48.167Z,18.80
2022-10-03T08:38:02.683Z,17.47
2022-10-03T08:42:16.641Z,14.50
2022-10-03T08:46:30.447Z,21.83
2022-10-03T08:50:39.209Z,17.10
2022-10-03T08:54:58.943Z,15.77
2022-10-03T08:59:13.141Z,17.20
2022-10-03T09:03:37.849Z,11.47
2022-10-03T09:07:57.761Z,10.27
2022-10-03T09:12:16.679Z,11.23
2022-10-03T09:16:28.265Z,11.77
2022-10-03T09:20:53.621Z,12.63
2022-10-03T09:25:09.901Z,18.53
2022-10-03T09:29:44.400Z,14.07
2022-10-03T09:34:05.377Z,11.47
2022-10-03T09:38:21.640Z,12.13
2022-10-03T09:42:36.469Z,9.50
2022-10-03T09:46:59.836Z,10.70
2022-10-03T09:51:11.567Z,12.73
2022-10-03T09:55:30.032Z,14.40
2022-10-03T09:59:37.011Z,8.33
2022-10-03T10:03:56.638Z,9.57
2022-10-03T10:08:22.191Z,14.53
2022-10-03T10:12:51.025Z,9.47
2022-10-03T10:17:22.537Z,15.20
2022-10-03T10:21:36.514Z,11.87
2022-10-03T10:25:53.755Z,7.17
2022-10-03T10:30:02.898Z,10.93
2022-10-03T10:34:36.848Z,8.20
2022-10-03T10:39:10.191Z,7.83
2022-10-03T10:43:26.317Z,13.50
2022-10-03T10:47:45.405Z,8.30
2022-10-03T10:52:11.125Z,6.63
2022-10-03T10:56:31.266Z,6.27
2022-10-03T11:00:44.191Z,7.63
2022-10-03T11:05:06.491Z,10.93
2022-10-03T11:09:34.943Z,9.83
2022-10-03T11:13:53.858Z,6.57
2022-10-03T11:18:14.742Z,9.57
2022-10-03T11:22:44.104Z,10.60
2022-10-03T11:27:02.101Z,7.07
2022-10-03T11:31:24.235Z,8.97
2022-10-03T11:35:44.079Z,11.50
2022-10-03T11:39:48.885Z,16.47
2022-10-03T11:44:05.072Z,10.23
2022-10-03T11:48:16.891Z,8.50
2022-10-03T11:52:25.649Z,8.03
2022-10-03T11:56:34.400Z,5.50
2022-10-03T12:00:36.929Z,6.73
2022-10-03T12:04:44.609Z,5.07
2022-10-03T12:08:52.836Z,7.40
2022-10-03T12:12:55.264Z,6.80
2022-10-03T12:17:01.449Z,5.17
2022-10-03T12:21:07.481Z,5.50
2022-10-03T12:25:17.839Z,4.40
2022-10-03T12:29:20.297Z,5.33
2022-10-03T12:33:29.799Z,7.10
2022-10-03T12:37:35.496Z,7.33
2022-10-03T12:41:54.016Z,8.00
2022-10-03T12:45:58.856Z,6.17
2022-10-03T12:50:04.525Z,7.97
2022-10-03T12:54:11.240Z,5.30
2022-10-03T12:58:18.033Z,8.13
2022-10-03T13:02:27.173Z,4.93
2022-10-03T13:07:02.244Z,6.47
2022-10-03T13:11:09.600Z,6.23
2022-10-03T13:15:31.841Z,9.53
2022-10-03T13:19:39.517Z,4.50
2022-10-03T13:23:44.231Z,10.97
2022-10-03T13:27:47.596Z,5.27
2022-10-03T13:32:10.099Z,4.60
2022-10-03T13:36:18.390Z,4.90
2022-10-03T13:40:19.953Z,7.97
2022-10-03T13:44:22.276Z,6.67
2022-10-03T13:48:24.942Z,5.47
2022-10-03T13:52:33.362Z,4.77
2022-10-03T13:56:41.454Z,7.73
2022-10-03T14:00:48.198Z,5.33
2022-10-03T14:05:13.474Z,6.37
2022-10-03T14:09:33.178Z,6.07
2022-10-03T14:13:41.714Z,6.17
2022-10-03T14:17:46.285Z,6.67
2022-10-03T14:21:57.089Z,5.87
2022-10-03T14:26:03.414Z,5.10
2022-10-03T14:30:05.789Z,3.30
2022-10-03T14:34:11.185Z,5.87
2022-10-03T14:38:23.854Z,3.70
2022-10-03T14:42:32.357Z,6.20
2022-10-03T14:46:35.636Z,4.27
2022-10-03T14:50:38.381Z,6.17
2022-10-03T14:54:41.593Z,6.87
2022-10-03T14:58:46.610Z,5.27
2022-10-03T15:02:49.672Z,6.30
2022-10-03T15:06:52.065Z,5.00
2022-10-03T15:10:55.617Z,6.80
2022-10-03T15:15:01.806Z,5.33
2022-10-03T15:19:07.392Z,4.07
2022-10-03T15:23:17.751Z,4.40
2022-10-03T15:27:21.049Z,6.70
2022-10-03T15:31:28.298Z,4.07
2022-10-03T15:35:33.353Z,6.50
2022-10-03T15:39:36.030Z,8.33
2022-10-03T15:43:42.192Z,4.53
2022-10-03T15:47:46.245Z,6.60
2022-10-03T15:51:47.821Z,3.87
2022-10-03T15:55:50.550Z,6.40
2022-10-03T15:59:52.829Z,3.20
2022-10-03T16:03:57.353Z,3.33
2022-10-03T16:08:00.869Z,5.37
2022-10-03T16:12:10.317Z,8.47
2022-10-03T16:16:15.494Z,7.67
2022-10-03T16:20:21.793Z,7.10
2022-10-03T16:24:28.986Z,4.33
2022-10-03T16:28:31.415Z,14.50
2022-10-03T16:32:35.158Z,4.17
2022-10-03T16:36:42.661Z,7.70
2022-10-03T16:40:50.202Z,5.07
2022-10-03T16:44:52.213Z,3.57
2022-10-03T16:48:55.372Z,5.23
2022-10-03T16:52:58.858Z,4.50
2022-10-03T16:57:01.287Z,9.20
2022-10-03T17:01:25.796Z,3.90
2022-10-03T17:05:25.082Z,11.00
2022-10-03T17:09:32.145Z,6.30
2022-10-03T17:13:39.837Z,5.23
2022-10-03T17:17:45.632Z,8.63
2022-10-03T17:21:48.352Z,9.37
2022-10-03T17:25:57.384Z,5.53
2022-10-03T17:30:01.536Z,4.07
2022-10-03T17:34:09.957Z,5.33
2022-10-03T17:38:37.193Z,5.37
2022-10-03T17:42:40.888Z,5.37
2022-10-03T17:46:46.991Z,5.37
2022-10-03T17:50:52.863Z,3.80
2022-10-03T17:54:56.102Z,6.50
2022-10-03T17:59:01.866Z,6.27
2022-10-03T18:03:05.205Z,5.27
2022-10-03T18:07:08.534Z,8.33
2022-10-03T18:11:09.875Z,4.57
2022-10-03T18:15:29.872Z,4.80
2022-10-03T18:19:39.920Z,3.90
2022-10-03T18:23:54.754Z,9.57
2022-10-03T18:28:10.573Z,9.40
2022-10-03T18:32:15.927Z,5.00
2022-10-03T18:36:20.791Z,6.90
2022-10-03T18:40:25.158Z,6.47
2022-10-03T18:44:28.173Z,9.50
2022-10-03T18:48:32.211Z,5.20
2022-10-03T18:52:40.234Z,5.67
2022-10-03T18:56:42.184Z,11.47
2022-10-03T19:00:47.747Z,4.83
2022-10-03T19:04:51.975Z,6.00
2022-10-03T19:08:56.042Z,9.80
2022-10-03T19:13:01.171Z,8.57
2022-10-03T19:17:11.915Z,6.57
2022-10-03T19:21:15.547Z,9.30
2022-10-03T19:25:20.182Z,7.57
2022-10-03T19:29:22.557Z,6.87
2022-10-03T19:33:25.141Z,6.83
2022-10-03T19:37:33.036Z,4.97
2022-10-03T19:41:38.090Z,4.37
2022-10-03T19:45:39.563Z,9.07
2022-10-03T19:49:52.857Z,7.57
2022-10-03T19:53:55.158Z,6.67
2022-10-03T19:57:58.999Z,8.37
2022-10-03T20:02:03.776Z,7.13
2022-10-03T20:06:08.298Z,9.60
2022-10-03T20:10:15.790Z,6.17
2022-10-03T20:14:19.105Z,6.87
2022-10-03T20:18:21.812Z,14.70
2022-10-03T20:22:24.556Z,6.33
2022-10-03T20:26:31.683Z,7.70
2022-10-03T20:30:38.333Z,6.67
2022-10-03T20:34:40.971Z,6.17
2022-10-03T20:38:50.948Z,7.47
2022-10-03T20:42:53.613Z,6.73
2022-10-03T20:47:01.783Z,7.83
2022-10-03T20:51:03.862Z,7.50
2022-10-03T20:55:06.769Z,11.13
2022-10-03T20:59:10.144Z,5.57
2022-10-03T21:03:15.509Z,6.30
2022-10-03T21:07:22.907Z,8.73
2022-10-03T21:11:26.283Z,6.60
2022-10-03T21:15:33.883Z,5.53
2022-10-03T21:19:45.652Z,4.57
2022-10-03T21:23:49.948Z,5.13
2022-10-03T21:27:53.201Z,9.87
2022-10-03T21:32:01.060Z,10.00
2022-10-03T21:36:07.277Z,7.10
2022-10-03T21:40:15.932Z,7.40
2022-10-03T21:44:27.719Z,6.50
2022-10-03T21:48:31.716Z,8.23
2022-10-03T21:52:49.580Z,7.77
2022-10-03T21:56:57.060Z,5.53
2022-10-03T22:01:04.668Z,10.03
2022-10-03T22:05:11.659Z,6.23
2022-10-03T22:09:14.281Z,8.80
2022-10-03T22:13:18.244Z,6.40
2022-10-03T22:17:23.932Z,5.03
2022-10-03T22:21:26.575Z,6.50
2022-10-03T22:25:35.894Z,8.47
2022-10-03T22:29:42.192Z,9.03
2022-10-03T22:33:55.879Z,8.03
2022-10-03T22:37:57.659Z,6.67
2022-10-03T22:42:00.188Z,6.80
2022-10-03T22:46:03.214Z,6.80
2022-10-03T22:50:08.273Z,8.30
2022-10-03T22:54:10.997Z,7.20
2022-10-03T22:58:13.185Z,6.47
2022-10-03T23:02:16.832Z,6.70
2022-10-03T23:06:32.352Z,6.10
2022-10-03T23:10:37.688Z,6.50
2022-10-03T23:14:41.744Z,4.73
2022-10-03T23:18:50.312Z,5.03
2022-10-03T23:22:53.660Z,6.90
2022-10-03T23:27:02.173Z,5.93
2022-10-03T23:31:04.453Z,6.87
2022-10-03T23:35:14.504Z,7.73
2022-10-03T23:39:30.656Z,6.93
2022-10-03T23:43:33.567Z,7.83
2022-10-03T23:47:39.365Z,4.17
2022-10-03T23:51:42.596Z,8.33
2022-10-03T23:55:44.532Z,4.00
2022-10-03T23:59:46.184Z,6.80
